sensor_id;sensor_type;location;lat;lon;timestamp;P1;durP1;ratioP1;P2;durP2;ratioP2
1959;SDS011;980;43.794;11.212;2024-01-06T09:21:51;3.00;;;3.00;;
1959;SDS011;980;43.794;11.212;2024-01-06T09:24:17;2.00;;;2.00;;
1959;SDS011;980;43.794;11.212;2024-01-06T09:26:42;2.00;;;2.00;;
1959;SDS011;980;43.794;11.212;2024-01-06T09:29:09;1.00;;;1.00;;
1959;SDS011;980;43.794;11.212;2024-01-06T09:31:34;2.00;;;1.00;;
1959;SDS011;980;43.794;11.212;2024-01-06T09:34:00;1.50;;;1.25;;
1959;SDS011;980;43.794;11.212;2024-01-06T09:36:26;2.75;;;0.75;;
1959;SDS011;980;43.794;11.212;2024-01-06T09:38:51;2.50;;;2.00;;
1959;SDS011;980;43.794;11.212;2024-01-06T09:41:17;1.00;;;1.00;;
1959;SDS011;980;43.794;11.212;2024-01-06T09:43:42;8.75;;;6.00;;
1959;SDS011;980;43.794;11.212;2024-01-06T09:46:15;17.75;;;14.75;;
1959;SDS011;980;43.794;11.212;2024-01-06T09:48:42;20.00;;;19.25;;
1959;SDS011;980;43.794;11.212;2024-01-06T09:51:09;6.75;;;6.25;;
1959;SDS011;980;43.794;11.212;2024-01-06T09:53:35;8.25;;;6.50;;
1959;SDS011;980;43.794;11.212;2024-01-06T09:56:04;9.25;;;9.00;;
1959;SDS011;980;43.794;11.212;2024-01-06T09:58:30;19.00;;;17.75;;
1959;SDS011;980;43.794;11.212;2024-01-06T10:00:58;10.00;;;6.75;;
1959;SDS011;980;43.794;11.212;2024-01-06T10:03:24;19.25;;;15.25;;
1959;SDS011;980;43.794;11.212;2024-01-06T10:05:51;6.00;;;6.00;;
1959;SDS011;980;43.794;11.212;2024-01-06T10:08:17;9.50;;;7.00;;
1959;SDS011;980;43.794;11.212;2024-01-06T10:10:44;2.25;;;2.00;;
1959;SDS011;980;43.794;11.212;2024-01-06T10:13:09;1.25;;;1.25;;
1959;SDS011;980;43.794;11.212;2024-01-06T10:15:35;1.25;;;1.00;;
1959;SDS011;980;43.794;11.212;2024-01-06T10:18:01;1.50;;;1.50;;
1959;SDS011;980;43.794;11.212;2024-01-06T10:20:28;2.00;;;2.00;;
1959;SDS011;980;43.794;11.212;2024-01-06T10:22:54;2.00;;;1.00;;
1959;SDS011;980;43.794;11.212;2024-01-06T10:25:19;1.00;;;1.00;;
1959;SDS011;980;43.794;11.212;2024-01-06T10:27:48;1.00;;;1.00;;
1959;SDS011;980;43.794;11.212;2024-01-06T10:30:13;2.00;;;2.00;;
1959;SDS011;980;43.794;11.212;2024-01-06T10:32:43;2.00;;;2.00;;
1959;SDS011;980;43.794;11.212;2024-01-06T10:35:08;3.00;;;2.00;;
1959;SDS011;980;43.794;11.212;2024-01-06T10:37:34;5.00;;;2.75;;
1959;SDS011;980;43.794;11.212;2024-01-06T10:42:53;4.00;;;2.25;;
1959;SDS011;980;43.794;11.212;2024-01-06T10:45:23;2.00;;;2.00;;
1959;SDS011;980;43.794;11.212;2024-01-06T10:47:48;7.75;;;3.75;;
1959;SDS011;980;43.794;11.212;2024-01-06T10:50:14;7.00;;;3.75;;
1959;SDS011;980;43.794;11.212;2024-01-06T10:52:42;7.50;;;6.00;;
1959;SDS011;980;43.794;11.212;2024-01-06T10:55:08;5.50;;;5.50;;
1959;SDS011;980;43.794;11.212;2024-01-06T10:57:33;3.00;;;3.00;;
1959;SDS011;980;43.794;11.212;2024-01-06T10:59:59;3.00;;;1.00;;
1959;SDS011;980;43.794;11.212;2024-01-06T11:02:25;3.00;;;3.00;;
1959;SDS011;980;43.794;11.212;2024-01-06T11:04:50;3.00;;;2.50;;
1959;SDS011;980;43.794;11.212;2024-01-06T11:07:17;2.25;;;2.25;;
1959;SDS011;980;43.794;11.212;2024-01-06T11:10:25;3.00;;;2.00;;
1959;SDS011;980;43.794;11.212;2024-01-06T11:12:31;1.00;;;0.00;;
1959;SDS011;980;43.794;11.212;2024-01-06T11:14:57;0.75;;;0.75;;
1959;SDS011;980;43.794;11.212;2024-01-06T11:20:06;5.75;;;4.00;;
1959;SDS011;980;43.794;11.212;2024-01-06T11:22:31;37.00;;;33.75;;
1959;SDS011;980;43.794;11.212;2024-01-06T11:25:03;42.50;;;39.75;;
1959;SDS011;980;43.794;11.212;2024-01-06T11:27:29;11.00;;;6.25;;
1959;SDS011;980;43.794;11.212;2024-01-06T11:29:55;5.00;;;4.00;;
1959;SDS011;980;43.794;11.212;2024-01-06T11:34:50;2.00;;;2.00;;
1959;SDS011;980;43.794;11.212;2024-01-06T11:37:18;2.00;;;2.00;;
1959;SDS011;980;43.794;11.212;2024-01-06T11:39:44;1.75;;;0.75;;
1959;SDS011;980;43.794;11.212;2024-01-06T11:42:10;1.00;;;1.00;;
1959;SDS011;980;43.794;11.212;2024-01-06T11:44:38;1.75;;;1.75;;
1959;SDS011;980;43.794;11.212;2024-01-06T11:47:04;2.00;;;2.00;;
1959;SDS011;980;43.794;11.212;2024-01-06T11:49:30;5.75;;;5.00;;
1959;SDS011;980;43.794;11.212;2024-01-06T11:51:56;1.00;;;0.25;;
1959;SDS011;980;43.794;11.212;2024-01-06T11:54:22;1.00;;;1.00;;
1959;SDS011;980;43.794;11.212;2024-01-06T11:56:47;1.25;;;1.25;;
1959;SDS011;980;43.794;11.212;2024-01-06T11:59:13;1.00;;;1.00;;
1959;SDS011;980;43.794;11.212;2024-01-06T12:01:38;1.00;;;1.00;;
1959;SDS011;980;43.794;11.212;2024-01-06T12:04:04;1.25;;;1.25;;
1959;SDS011;980;43.794;11.212;2024-01-06T12:06:30;2.00;;;2.00;;
1959;SDS011;980;43.794;11.212;2024-01-06T12:09:05;3.25;;;1.75;;
1959;SDS011;980;43.794;11.212;2024-01-06T12:11:30;3.00;;;2.00;;
1959;SDS011;980;43.794;11.212;2024-01-06T12:13:56;5.00;;;5.00;;
1959;SDS011;980;43.794;11.212;2024-01-06T12:16:21;13.00;;;8.75;;
1959;SDS011;980;43.794;11.212;2024-01-06T12:18:47;18.25;;;16.75;;
1959;SDS011;980;43.794;11.212;2024-01-06T12:21:12;9.00;;;7.25;;
1959;SDS011;980;43.794;11.212;2024-01-06T12:23:37;6.00;;;5.00;;
1959;SDS011;980;43.794;11.212;2024-01-06T12:26:03;4.25;;;2.00;;
1959;SDS011;980;43.794;11.212;2024-01-06T12:28:29;4.25;;;4.25;;
1959;SDS011;980;43.794;11.212;2024-01-06T12:30:58;6.75;;;6.75;;
1959;SDS011;980;43.794;11.212;2024-01-06T12:33:23;1.00;;;1.00;;
1959;SDS011;980;43.794;11.212;2024-01-06T12:35:48;4.00;;;4.00;;
1959;SDS011;980;43.794;11.212;2024-01-06T12:38:14;4.50;;;3.50;;
1959;SDS011;980;43.794;11.212;2024-01-06T12:40:39;7.50;;;7.50;;
1959;SDS011;980;43.794;11.212;2024-01-06T12:43:06;26.00;;;24.00;;
1959;SDS011;980;43.794;11.212;2024-01-06T12:45:31;61.00;;;48.00;;
1959;SDS011;980;43.794;11.212;2024-01-06T12:48:00;40.25;;;32.50;;
1959;SDS011;980;43.794;11.212;2024-01-06T12:50:25;44.00;;;37.50;;
1959;SDS011;980;43.794;11.212;2024-01-06T12:52:50;2.50;;;2.00;;
1959;SDS011;980;43.794;11.212;2024-01-06T12:55:16;3.25;;;1.00;;
1959;SDS011;980;43.794;11.212;2024-01-06T12:57:41;2.75;;;1.00;;
1959;SDS011;980;43.794;11.212;2024-01-06T13:00:07;4.00;;;2.75;;
1959;SDS011;980;43.794;11.212;2024-01-06T13:02:34;3.00;;;1.25;;
1959;SDS011;980;43.794;11.212;2024-01-06T13:04:59;2.25;;;2.00;;
1959;SDS011;980;43.794;11.212;2024-01-06T13:07:25;1.00;;;1.00;;
1959;SDS011;980;43.794;11.212;2024-01-06T13:09:50;2.00;;;2.00;;
1959;SDS011;980;43.794;11.212;2024-01-06T13:12:16;3.25;;;2.25;;
1959;SDS011;980;43.794;11.212;2024-01-06T13:14:43;3.50;;;3.50;;
1959;SDS011;980;43.794;11.212;2024-01-06T13:17:09;3.00;;;3.00;;
1959;SDS011;980;43.794;11.212;2024-01-06T13:19:35;3.50;;;2.25;;
1959;SDS011;980;43.794;11.212;2024-01-06T13:22:00;2.00;;;2.00;;
1959;SDS011;980;43.794;11.212;2024-01-06T13:24:25;2.75;;;2.00;;
1959;SDS011;980;43.794;11.212;2024-01-06T13:26:50;2.75;;;2.75;;
1959;SDS011;980;43.794;11.212;2024-01-06T13:29:16;2.75;;;2.00;;
1959;SDS011;980;43.794;11.212;2024-01-06T13:31:42;3.00;;;1.00;;
1959;SDS011;980;43.794;11.212;2024-01-06T13:34:09;2.00;;;2.00;;
1959;SDS011;980;43.794;11.212;2024-01-06T13:36:34;2.00;;;1.00;;
1959;SDS011;980;43.794;11.212;2024-01-06T13:39:00;1.00;;;1.00;;
1959;SDS011;980;43.794;11.212;2024-01-06T13:41:25;1.00;;;1.00;;
1959;SDS011;980;43.794;11.212;2024-01-06T13:43:51;1.00;;;1.00;;
1959;SDS011;980;43.794;11.212;2024-01-06T13:46:17;0.25;;;0.25;;
1959;SDS011;980;43.794;11.212;2024-01-06T13:48:42;2.00;;;1.00;;
1959;SDS011;980;43.794;11.212;2024-01-06T13:51:07;2.00;;;2.00;;
1959;SDS011;980;43.794;11.212;2024-01-06T13:53:33;2.00;;;1.00;;
1959;SDS011;980;43.794;11.212;2024-01-06T13:55:58;2.25;;;2.25;;
1959;SDS011;980;43.794;11.212;2024-01-06T13:58:24;1.50;;;1.50;;
1959;SDS011;980;43.794;11.212;2024-01-06T14:00:49;2.00;;;1.50;;
1959;SDS011;980;43.794;11.212;2024-01-06T14:03:15;1.00;;;1.00;;
1959;SDS011;980;43.794;11.212;2024-01-06T14:05:40;1.00;;;1.00;;
1959;SDS011;980;43.794;11.212;2024-01-06T14:08:06;1.00;;;1.00;;
1959;SDS011;980;43.794;11.212;2024-01-06T14:10:31;1.00;;;1.00;;
1959;SDS011;980;43.794;11.212;2024-01-06T14:12:56;1.00;;;1.00;;
1959;SDS011;980;43.794;11.212;2024-01-06T14:15:22;1.00;;;1.00;;
1959;SDS011;980;43.794;11.212;2024-01-06T14:17:47;1.00;;;1.00;;
1959;SDS011;980;43.794;11.212;2024-01-06T14:20:16;2.25;;;1.00;;
1959;SDS011;980;43.794;11.212;2024-01-06T14:22:45;2.00;;;1.00;;
1959;SDS011;980;43.794;11.212;2024-01-06T14:25:11;2.00;;;2.00;;
1959;SDS011;980;43.794;11.212;2024-01-06T14:27:36;1.00;;;1.00;;
1959;SDS011;980;43.794;11.212;2024-01-06T14:30:02;1.00;;;1.00;;
1959;SDS011;980;43.794;11.212;2024-01-06T14:32:27;1.00;;;1.00;;
1959;SDS011;980;43.794;11.212;2024-01-06T14:34:54;2.00;;;1.00;;
1959;SDS011;980;43.794;11.212;2024-01-06T14:37:19;2.25;;;2.25;;
1959;SDS011;980;43.794;11.212;2024-01-06T14:39:44;3.00;;;1.75;;
1959;SDS011;980;43.794;11.212;2024-01-06T14:42:10;1.00;;;1.00;;
1959;SDS011;980;43.794;11.212;2024-01-06T14:44:36;2.25;;;1.25;;
1959;SDS011;980;43.794;11.212;2024-01-06T14:47:01;2.00;;;2.00;;
1959;SDS011;980;43.794;11.212;2024-01-06T14:49:26;2.00;;;2.00;;
1959;SDS011;980;43.794;11.212;2024-01-06T14:51:51;3.00;;;3.00;;
1959;SDS011;980;43.794;11.212;2024-01-06T14:54:17;1.75;;;1.50;;
1959;SDS011;980;43.794;11.212;2024-01-06T14:56:42;7.00;;;6.00;;
1959;SDS011;980;43.794;11.212;2024-01-06T14:59:08;12.00;;;11.50;;
1959;SDS011;980;43.794;11.212;2024-01-06T15:01:33;7.00;;;7.00;;
1959;SDS011;980;43.794;11.212;2024-01-06T15:03:59;9.25;;;9.25;;
1959;SDS011;980;43.794;11.212;2024-01-06T15:06:24;15.00;;;15.00;;
1959;SDS011;980;43.794;11.212;2024-01-06T15:08:49;10.50;;;10.50;;
1959;SDS011;980;43.794;11.212;2024-01-06T15:11:15;11.50;;;10.25;;
1959;SDS011;980;43.794;11.212;2024-01-06T15:13:40;18.25;;;17.75;;
1959;SDS011;980;43.794;11.212;2024-01-06T15:16:06;14.75;;;14.25;;
1959;SDS011;980;43.794;11.212;2024-01-06T15:18:32;19.00;;;18.50;;
1959;SDS011;980;43.794;11.212;2024-01-06T15:20:57;26.25;;;20.00;;
1959;SDS011;980;43.794;11.212;2024-01-06T15:23:23;17.00;;;16.00;;
1959;SDS011;980;43.794;11.212;2024-01-06T15:25:49;17.75;;;17.75;;
1959;SDS011;980;43.794;11.212;2024-01-06T15:28:14;20.00;;;18.00;;
1959;SDS011;980;43.794;11.212;2024-01-06T15:30:39;14.25;;;13.75;;
1959;SDS011;980;43.794;11.212;2024-01-06T15:33:05;14.50;;;14.50;;
1959;SDS011;980;43.794;11.212;2024-01-06T15:35:30;17.50;;;12.00;;
1959;SDS011;980;43.794;11.212;2024-01-06T15:37:55;13.00;;;12.00;;
1959;SDS011;980;43.794;11.212;2024-01-06T15:40:20;8.50;;;8.50;;
1959;SDS011;980;43.794;11.212;2024-01-06T15:42:47;8.25;;;8.00;;
1959;SDS011;980;43.794;11.212;2024-01-06T15:45:12;7.75;;;6.00;;
1959;SDS011;980;43.794;11.212;2024-01-06T15:47:37;6.75;;;6.50;;
1959;SDS011;980;43.794;11.212;2024-01-06T15:50:03;6.00;;;6.00;;
1959;SDS011;980;43.794;11.212;2024-01-06T15:52:28;6.00;;;6.00;;
1959;SDS011;980;43.794;11.212;2024-01-06T15:54:54;4.00;;;4.00;;
1959;SDS011;980;43.794;11.212;2024-01-06T15:57:19;37.00;;;32.25;;
1959;SDS011;980;43.794;11.212;2024-01-06T15:59:44;17.00;;;13.75;;
1959;SDS011;980;43.794;11.212;2024-01-06T16:02:10;16.00;;;15.25;;
1959;SDS011;980;43.794;11.212;2024-01-06T16:04:36;15.75;;;12.50;;
1959;SDS011;980;43.794;11.212;2024-01-06T16:07:01;4.00;;;4.00;;
1959;SDS011;980;43.794;11.212;2024-01-06T16:09:27;7.50;;;4.75;;
1959;SDS011;980;43.794;11.212;2024-01-06T16:11:52;4.25;;;3.00;;
1959;SDS011;980;43.794;11.212;2024-01-06T16:14:20;3.00;;;3.00;;
1959;SDS011;980;43.794;11.212;2024-01-06T16:16:46;5.50;;;3.50;;
1959;SDS011;980;43.794;11.212;2024-01-06T16:19:11;7.25;;;6.75;;
1959;SDS011;980;43.794;11.212;2024-01-06T16:21:36;5.00;;;3.75;;
1959;SDS011;980;43.794;11.212;2024-01-06T16:24:02;6.50;;;5.50;;
1959;SDS011;980;43.794;11.212;2024-01-06T16:26:27;6.25;;;3.75;;
1959;SDS011;980;43.794;11.212;2024-01-06T16:28:53;2.00;;;2.00;;
1959;SDS011;980;43.794;11.212;2024-01-06T16:31:18;67.25;;;54.00;;
1959;SDS011;980;43.794;11.212;2024-01-06T16:33:47;63.50;;;51.75;;
1959;SDS011;980;43.794;11.212;2024-01-06T16:36:14;39.25;;;36.25;;
1959;SDS011;980;43.794;11.212;2024-01-06T16:38:39;24.75;;;21.00;;
1959;SDS011;980;43.794;11.212;2024-01-06T16:41:05;13.75;;;9.75;;
1959;SDS011;980;43.794;11.212;2024-01-06T16:43:33;2.00;;;2.00;;
